Time;durP1;ratioP1;P1;durP2;ratioP2;P2;SDS_P1;SDS_P2;PMS_P1;PMS_P2;Temp;Humidity;BMP_temperature;BMP_pressure;BME280_temperature;BME280_humidity;BME280_pressure;Samples;Min_cycle;Max_cycle;Signal;HPM_P1;HPM_P2
2023/08/02 00:01:00;;;;;;;8.60;6.03;;;;;;;23.81;nan;62210.38;5014981;28;20182;-61
2023/08/02 00:03:26;;;;;;;8.35;5.50;;;;;;;23.44;nan;62140.66;5014520;28;20549;-60
2023/08/02 00:05:57;;;;;;;7.88;5.30;;;;;;;23.43;nan;62159.78;5012811;28;20690;-60
2023/08/02 00:08:23;;;;;;;10.18;5.70;;;;;;;23.38;nan;62131.16;5014326;28;20164;-65
2023/08/02 00:10:49;;;;;;;8.55;5.18;;;;;;;23.44;nan;62020.06;5014384;28;20196;-61
2023/08/02 00:13:14;;;;;;;7.40;5.28;;;;;;;23.50;nan;62165.16;5014286;28;20222;-61
2023/08/02 00:15:40;;;;;;;7.72;5.18;;;;;;;23.40;nan;62031.72;5014021;28;20172;-61
2023/08/02 00:18:06;;;;;;;7.28;5.22;;;;;;;23.38;nan;61932.41;5014035;28;20179;-59
2023/08/02 00:20:31;;;;;;;6.53;5.07;;;;;;;23.22;nan;62134.38;5014285;28;20219;-62
2023/08/02 00:22:57;;;;;;;7.47;5.50;;;;;;;23.28;nan;61989.41;5014343;28;20270;-60
2023/08/02 00:25:24;;;;;;;8.00;5.72;;;;;;;23.49;nan;62190.66;5013605;28;20172;-63
2023/08/02 00:27:49;;;;;;;7.53;5.38;;;;;;;23.54;nan;62159.84;5013432;28;20231;-63
2023/08/02 00:30:15;;;;;;;7.25;5.05;;;;;;;23.39;nan;62064.50;5014243;28;20199;-62
2023/08/02 00:32:47;;;;;;;7.65;5.13;;;;;;;23.25;nan;62132.00;5013088;28;20215;-62
2023/08/02 00:35:13;;;;;;;9.95;5.57;;;;;;;23.37;nan;62049.19;5013696;28;20176;-59
2023/08/02 00:37:40;;;;;;;7.28;5.10;;;;;;;23.28;nan;62135.41;5014305;28;20176;-61
2023/08/02 00:40:06;;;;;;;8.13;5.80;;;;;;;23.11;nan;62092.59;5014119;28;20234;-62
2023/08/02 00:42:31;;;;;;;8.27;5.07;;;;;;;23.23;nan;62078.16;5013933;28;20179;-61
2023/08/02 00:44:57;;;;;;;9.30;5.38;;;;;;;22.94;nan;62079.00;5013780;28;20176;-58
2023/08/02 00:47:24;;;;;;;6.82;4.90;;;;;;;23.04;nan;61983.53;5013832;28;20176;-60
2023/08/02 00:49:50;;;;;;;7.97;4.95;;;;;;;23.29;nan;62027.03;5014119;28;20188;-59
2023/08/02 00:52:15;;;;;;;7.18;5.13;;;;;;;23.10;nan;61984.56;5014185;28;20180;-61
2023/08/02 00:54:41;;;;;;;7.65;5.13;;;;;;;23.12;nan;62252.75;5014311;28;20462;-58
2023/08/02 00:57:09;;;;;;;9.48;5.10;;;;;;;22.76;nan;62087.16;5014291;28;20173;-60
2023/08/02 00:59:39;;;;;;;8.43;5.13;;;;;;;23.01;nan;61963.91;5013699;28;20186;-60
2023/08/02 01:02:06;;;;;;;7.63;5.03;;;;;;;21.79;nan;61928.97;5013755;28;20212;-61
2023/08/02 01:04:35;;;;;;;8.18;5.07;;;;;;;23.01;nan;62003.00;5013580;28;20250;-61
2023/08/02 01:07:27;;;;;;;10.48;5.63;;;;;;;22.83;nan;62046.22;5013888;28;20164;-62
2023/08/02 01:09:56;;;;;;;8.75;5.25;;;;;;;22.74;nan;61949.41;5012437;28;20218;-61
2023/08/02 01:12:24;;;;;;;7.85;5.57;;;;;;;22.87;nan;61949.13;5013616;28;20160;-61
2023/08/02 01:14:53;;;;;;;10.75;5.40;;;;;;;22.81;nan;62221.13;5013127;28;20224;-63
2023/08/02 01:17:19;;;;;;;8.10;5.00;;;;;;;22.96;nan;62214.22;5014101;28;20168;-61
2023/08/02 01:19:45;;;;;;;6.80;4.72;;;;;;;22.95;nan;62087.38;5013753;28;20183;-61
2023/08/02 01:22:10;;;;;;;8.77;4.93;;;;;;;22.95;nan;61993.56;5013242;28;20176;-57
2023/08/02 01:24:37;;;;;;;7.65;5.38;;;;;;;22.81;nan;62051.75;5013558;28;20174;-59
2023/08/02 01:27:08;;;;;;;7.35;5.00;;;;;;;22.75;nan;62081.38;5013307;28;20220;-62
2023/08/02 01:29:37;;;;;;;7.55;5.00;;;;;;;22.79;nan;61970.75;5013359;28;20200;-59
2023/08/02 01:32:05;;;;;;;7.47;5.25;;;;;;;22.78;nan;61925.88;5013191;28;20630;-63
2023/08/02 01:34:30;;;;;;;8.65;5.30;;;;;;;22.77;nan;61950.78;5012859;28;20179;-60
2023/08/02 01:36:56;;;;;;;7.20;5.05;;;;;;;22.71;nan;61920.50;5012918;28;20171;-61
2023/08/02 01:39:22;;;;;;;7.50;5.10;;;;;;;22.75;nan;61951.13;5012584;28;20531;-60
2023/08/02 01:41:47;;;;;;;7.38;5.00;;;;;;;22.63;nan;61960.31;5012897;28;20180;-63
2023/08/02 01:44:13;;;;;;;8.18;5.38;;;;;;;22.70;nan;61898.56;5013195;28;20176;-60
2023/08/02 01:46:38;;;;;;;8.20;5.35;;;;;;;22.58;nan;61887.50;5013135;28;20549;-62
2023/08/02 01:49:03;;;;;;;8.45;5.72;;;;;;;19.81;nan;63423.19;5012596;28;20671;-63
2023/08/02 01:51:29;;;;;;;7.97;4.63;;;;;;;22.47;nan;61890.63;5013061;28;20184;-59
2023/08/02 01:53:54;;;;;;;8.98;5.28;;;;;;;22.26;nan;61801.69;5013028;28;20626;-60
2023/08/02 01:56:20;;;;;;;9.55;5.78;;;;;;;22.46;nan;61900.47;5013120;28;20263;-60
2023/08/02 01:58:45;;;;;;;10.55;6.38;;;;;;;22.48;nan;61923.00;5012733;28;20172;-57
2023/08/02 02:01:10;;;;;;;11.90;7.13;;;;;;;22.34;nan;61897.25;5012559;28;20188;-58
2023/08/02 02:03:36;;;;;;;9.00;6.38;;;;;;;22.20;nan;61912.00;5012808;28;20275;-61
2023/08/02 02:06:01;;;;;;;11.27;7.88;;;;;;;22.13;nan;61990.53;5012586;28;20551;-60
2023/08/02 02:08:27;;;;;;;13.40;7.70;;;;;;;22.15;nan;61899.09;5012557;28;20172;-61
2023/08/02 02:10:54;;;;;;;13.52;8.50;;;;;;;22.03;nan;61878.22;5012218;28;20168;-62
2023/08/02 02:13:21;;;;;;;14.15;8.30;;;;;;;22.05;nan;62049.09;5012450;28;20170;-60
2023/08/02 02:15:47;;;;;;;12.93;8.15;;;;;;;21.90;nan;61829.03;5012890;28;20639;-59
2023/08/02 02:18:12;;;;;;;13.35;7.75;;;;;;;21.85;nan;61810.94;5012427;28;20195;-60
2023/08/02 02:20:38;;;;;;;13.07;8.80;;;;;;;21.52;nan;61797.44;5012555;28;20184;-60
2023/08/02 02:23:03;;;;;;;14.65;9.15;;;;;;;21.63;nan;61798.97;5012310;28;20171;-62
2023/08/02 02:25:29;;;;;;;14.38;9.27;;;;;;;21.70;nan;61825.09;5012196;28;20171;-61
2023/08/02 02:27:54;;;;;;;15.63;9.38;;;;;;;21.96;nan;61835.88;5012462;28;20706;-61
2023/08/02 02:30:20;;;;;;;14.70;9.23;;;;;;;21.75;nan;61814.59;5012677;28;20203;-64
2023/08/02 02:32:45;;;;;;;15.25;9.13;;;;;;;21.58;nan;61782.88;5012295;28;20176;-61
2023/08/02 02:35:14;;;;;;;12.93;8.68;;;;;;;21.28;nan;61949.53;5012486;28;20584;-59
2023/08/02 02:37:39;;;;;;;15.95;9.50;;;;;;;21.30;nan;61727.72;5012251;28;20708;-61
2023/08/02 02:40:06;;;;;;;16.23;9.93;;;;;;;21.17;nan;61801.34;5012280;28;20630;-62
2023/08/02 02:42:31;;;;;;;17.70;10.25;;;;;;;21.35;nan;61715.19;5011806;28;20168;-60
2023/08/02 02:44:57;;;;;;;17.17;9.68;;;;;;;21.22;nan;61835.59;5012033;28;20263;-61
2023/08/02 02:47:22;;;;;;;14.98;9.45;;;;;;;21.22;nan;61669.84;5011840;28;20203;-58
2023/08/02 02:49:48;;;;;;;16.38;10.10;;;;;;;20.99;nan;61576.22;5012049;28;20571;-63
2023/08/02 02:52:13;;;;;;;16.38;10.02;;;;;;;21.16;nan;61761.78;5015179;28;20172;-60
2023/08/02 02:54:39;;;;;;;16.25;10.23;;;;;;;20.98;nan;61648.38;5015883;28;20650;-60
2023/08/02 02:57:05;;;;;;;16.20;9.48;;;;;;;21.23;nan;61675.59;5016033;28;20176;-59
2023/08/02 02:59:30;;;;;;;15.05;10.13;;;;;;;21.00;nan;61814.31;5015871;28;20667;-57
2023/08/02 03:01:56;;;;;;;14.48;9.82;;;;;;;21.28;nan;61860.59;5016006;28;20225;-58
2023/08/02 03:04:21;;;;;;;18.73;11.13;;;;;;;21.12;nan;61703.22;5015201;28;20172;-61
2023/08/02 03:06:46;;;;;;;22.55;10.48;;;;;;;21.16;nan;61741.00;5015601;28;20176;-58
2023/08/02 03:09:12;;;;;;;18.15;10.50;;;;;;;20.92;nan;61597.44;5016198;28;20198;-61
2023/08/02 03:11:37;;;;;;;19.80;10.68;;;;;;;20.78;nan;61549.84;5015294;28;20184;-60
2023/08/02 03:14:04;;;;;;;18.40;10.23;;;;;;;20.90;nan;61678.28;5014990;28;20164;-59
2023/08/02 03:16:30;;;;;;;18.33;10.95;;;;;;;19.77;nan;61632.31;5015972;28;20191;-59
2023/08/02 03:18:55;;;;;;;20.20;11.32;;;;;;;20.90;nan;61647.09;5015922;28;20180;-58
2023/08/02 03:21:21;;;;;;;20.92;11.27;;;;;;;20.77;nan;61774.63;5014153;28;20184;-57
2023/08/02 03:23:46;;;;;;;19.25;11.05;;;;;;;20.95;nan;61712.50;5015169;28;20172;-58
2023/08/02 03:26:12;;;;;;;16.55;10.05;;;;;;;20.98;nan;61871.78;5015449;28;20553;-57
2023/08/02 03:28:37;;;;;;;17.85;10.52;;;;;;;20.99;nan;61628.72;5015190;28;20293;-63
2023/08/02 03:31:03;;;;;;;17.83;10.57;;;;;;;21.03;nan;61632.69;5014705;28;20172;-59
2023/08/02 03:33:28;;;;;;;16.50;9.80;;;;;;;21.03;nan;61884.72;5015277;28;20172;-61
2023/08/02 03:35:53;;;;;;;18.13;10.15;;;;;;;21.18;nan;61643.97;5014595;28;20639;-58
2023/08/02 03:38:19;;;;;;;16.65;9.95;;;;;;;21.43;nan;61823.03;5014893;28;20176;-61
2023/08/02 03:40:44;;;;;;;17.40;9.90;;;;;;;21.65;nan;61770.00;5014767;28;20267;-61
2023/08/02 03:43:10;;;;;;;23.77;11.20;;;;;;;22.10;nan;61791.34;5015383;28;20212;-62
2023/08/02 03:45:35;;;;;;;16.70;10.30;;;;;;;22.56;nan;61937.31;5014956;28;20674;-60
2023/08/02 03:48:00;;;;;;;17.58;10.65;;;;;;;22.76;nan;61960.06;5015200;28;20215;-56
2023/08/02 03:50:27;;;;;;;17.00;10.27;;;;;;;22.85;nan;61933.81;5015211;28;20184;-58
2023/08/02 03:52:53;;;;;;;17.67;10.30;;;;;;;22.55;nan;61930.97;5013567;28;20183;-60
2023/08/02 03:55:18;;;;;;;17.23;9.32;;;;;;;22.72;nan;61950.31;5015116;28;20172;-63
2023/08/02 03:57:44;;;;;;;17.65;10.60;;;;;;;22.27;nan;61909.56;5015446;28;20208;-60
2023/08/02 04:00:10;;;;;;;16.30;9.75;;;;;;;22.29;nan;61846.75;5014910;28;20636;-59
2023/08/02 04:02:35;;;;;;;18.65;10.38;;;;;;;22.55;nan;61912.75;5014729;28;20273;-62
2023/08/02 04:05:01;;;;;;;16.90;10.57;;;;;;;23.38;nan;61992.94;5015064;28;20639;-59
2023/08/02 04:07:26;;;;;;;15.73;9.88;;;;;;;24.12;nan;62110.53;5014292;28;20180;-60
2023/08/02 04:09:53;;;;;;;20.75;10.05;;;;;;;24.91;nan;62266.84;5013780;28;20215;-62
2023/08/02 04:12:19;;;;;;;15.73;9.57;;;;;;;24.87;nan;62210.00;5014988;28;20176;-59
2023/08/02 04:14:45;;;;;;;14.55;9.32;;;;;;;25.01;nan;62377.63;5014438;28;20172;-60
2023/08/02 04:17:10;;;;;;;15.95;8.98;;;;;;;25.90;nan;62368.22;5014349;28;20172;-59
2023/08/02 04:19:36;;;;;;;16.50;9.77;;;;;;;26.91;nan;62523.91;5012368;28;20271;-61
2023/08/02 04:22:01;;;;;;;15.48;9.38;;;;;;;27.34;nan;62596.72;5014078;28;20210;-60
2023/08/02 04:24:26;;;;;;;16.20;9.30;;;;;;;27.72;nan;62660.69;5014435;28;20215;-61
2023/08/02 04:26:52;;;;;;;14.73;9.35;;;;;;;28.17;nan;62564.47;5014436;28;20658;-62
2023/08/02 04:29:17;;;;;;;18.27;9.73;;;;;;;28.98;nan;62758.69;5013791;28;20222;-60
2023/08/02 04:31:43;;;;;;;13.82;8.43;;;;;;;29.40;nan;62785.78;4898644;28;20222;-59
2023/08/02 04:34:08;;;;;;;12.77;8.40;;;;;;;28.12;nan;62816.34;4268470;28;21445;-59
2023/08/02 04:36:34;;;;;;;12.45;8.13;;;;;;;29.83;nan;62947.81;4734963;28;20654;-62
2023/08/02 04:39:02;;;;;;;12.45;8.38;;;;;;;29.74;nan;63008.66;5007737;28;20172;-57
2023/08/02 04:41:27;;;;;;;14.27;8.48;;;;;;;29.72;nan;63051.16;5003167;28;20183;-62
2023/08/02 04:43:52;;;;;;;13.02;7.82;;;;;;;29.73;nan;62960.06;5004342;28;20558;-61
2023/08/02 04:46:18;;;;;;;14.38;8.73;;;;;;;29.66;nan;63030.50;5005028;28;20176;-61
2023/08/02 04:48:43;;;;;;;14.73;8.25;;;;;;;29.51;nan;62918.97;5003377;28;20621;-61
2023/08/02 04:51:10;;;;;;;14.02;8.02;;;;;;;29.12;nan;62808.38;5011424;28;20246;-59
2023/08/02 04:53:35;;;;;;;14.13;8.52;;;;;;;29.20;nan;62862.88;5002788;28;20174;-60
2023/08/02 04:56:00;;;;;;;12.65;8.63;;;;;;;29.35;nan;62882.75;5003391;28;20250;-62
2023/08/02 04:58:26;;;;;;;13.00;8.23;;;;;;;29.42;nan;62900.75;5006896;28;20202;-62
2023/08/02 05:00:51;;;;;;;11.00;7.70;;;;;;;28.75;nan;62748.69;5013068;28;20185;-62
2023/08/02 05:03:17;;;;;;;11.70;7.82;;;;;;;28.91;nan;63053.88;5011279;28;20180;-62
2023/08/02 05:05:42;;;;;;;10.38;7.60;;;;;;;28.84;nan;62811.63;5012808;28;20172;-60
2023/08/02 05:08:07;;;;;;;12.02;7.68;;;;;;;29.07;nan;62884.25;5012760;28;20229;-62
2023/08/02 05:10:33;;;;;;;11.38;7.75;;;;;;;28.96;nan;62828.00;5013050;28;20199;-59
2023/08/02 05:12:58;;;;;;;12.30;7.40;;;;;;;29.53;nan;62973.97;5012845;28;20504;-63
2023/08/02 05:15:24;;;;;;;12.40;8.30;;;;;;;29.72;nan;62897.75;5012274;28;20180;-61
2023/08/02 05:17:49;;;;;;;10.77;7.68;;;;;;;29.47;nan;62877.50;5012719;28;20167;-63
2023/08/02 05:20:14;;;;;;;10.63;6.68;;;;;;;29.37;nan;62968.75;5012363;28;20607;-61
2023/08/02 05:22:40;;;;;;;11.35;7.00;;;;;;;28.82;nan;62825.13;5012208;28;20187;-59
2023/08/02 05:25:06;;;;;;;9.73;6.93;;;;;;;28.42;nan;62763.44;5012644;28;20217;-62
2023/08/02 05:27:32;;;;;;;10.80;7.22;;;;;;;25.31;nan;62676.16;5012541;28;20311;-64
2023/08/02 05:29:57;;;;;;;12.82;7.32;;;;;;;27.92;nan;62717.75;5012335;28;20282;-61
2023/08/02 05:32:23;;;;;;;12.88;7.50;;;;;;;27.79;nan;62765.91;5012465;28;20171;-58
2023/08/02 05:34:48;;;;;;;12.38;7.55;;;;;;;27.61;nan;62617.13;5012821;28;20184;-64
2023/08/02 05:37:13;;;;;;;7.60;5.93;;;;;;;26.85;nan;62600.97;5012219;28;20180;-62
2023/08/02 05:39:39;;;;;;;10.13;6.85;;;;;;;27.27;nan;62606.50;5012261;28;20563;-59
2023/08/02 05:42:04;;;;;;;10.73;6.80;;;;;;;27.17;nan;62564.72;5012175;28;20283;-64
2023/08/02 05:44:30;;;;;;;13.63;6.22;;;;;;;27.42;nan;62586.94;5012089;28;20168;-60
2023/08/02 05:46:55;;;;;;;10.25;6.28;;;;;;;27.69;nan;62649.38;5012030;28;20178;-60
2023/08/02 05:49:20;;;;;;;10.02;6.50;;;;;;;27.82;nan;62685.28;5005038;28;20285;-62
2023/08/02 05:51:46;;;;;;;9.18;6.35;;;;;;;28.13;nan;62701.84;5010108;28;20241;-64
2023/08/02 05:54:11;;;;;;;12.00;6.88;;;;;;;28.16;nan;62713.19;5006448;28;20191;-60
2023/08/02 05:56:37;;;;;;;11.48;6.57;;;;;;;28.37;nan;62747.75;5000771;28;20207;-62
2023/08/02 05:59:02;;;;;;;9.15;5.88;;;;;;;28.49;nan;62902.94;5003013;28;20706;-60
2023/08/02 06:01:28;;;;;;;10.30;6.50;;;;;;;28.77;nan;62847.75;5010217;28;20265;-65
2023/08/02 06:03:53;;;;;;;9.77;6.20;;;;;;;28.69;nan;62752.31;5011956;28;20184;-62
2023/08/02 06:06:19;;;;;;;11.88;7.03;;;;;;;28.74;nan;62870.63;5011904;28;20172;-62
2023/08/02 06:08:45;;;;;;;10.88;7.00;;;;;;;28.85;nan;62812.78;5008730;28;20389;-63
2023/08/02 06:11:12;;;;;;;10.40;6.78;;;;;;;28.93;nan;62800.91;5011664;28;20211;-65
2023/08/02 06:13:37;;;;;;;9.90;6.47;;;;;;;26.37;nan;64385.50;5011891;28;20317;-59
2023/08/02 06:16:04;;;;;;;9.35;6.70;;;;;;;29.44;nan;62939.34;5011637;28;20171;-60
2023/08/02 06:18:29;;;;;;;11.07;7.32;;;;;;;29.69;nan;62947.56;5011583;28;20194;-62
2023/08/02 06:20:54;;;;;;;10.70;7.57;;;;;;;29.82;nan;62917.72;5010113;28;20175;-60
2023/08/02 06:23:20;;;;;;;12.82;7.80;;;;;;;29.83;nan;62949.88;5012115;28;20198;-60
2023/08/02 06:25:45;;;;;;;13.70;8.55;;;;;;;29.93;nan;62923.91;5010681;28;20173;-62
2023/08/02 06:28:11;;;;;;;11.48;7.88;;;;;;;29.96;nan;62940.56;5011354;28;20698;-61
2023/08/02 06:30:37;;;;;;;10.55;7.93;;;;;;;29.82;nan;63007.31;5010123;28;20211;-61
2023/08/02 06:33:02;;;;;;;11.60;7.53;;;;;;;29.77;nan;62969.38;5011710;28;20179;-60
2023/08/02 06:35:28;;;;;;;12.55;8.43;;;;;;;29.63;nan;63085.59;5009176;28;20174;-59
2023/08/02 06:37:53;;;;;;;13.93;9.00;;;;;;;29.38;nan;62861.91;5011502;28;20175;-63
2023/08/02 06:40:19;;;;;;;11.82;8.02;;;;;;;29.37;nan;62931.88;5011083;28;20280;-62
2023/08/02 06:42:45;;;;;;;10.85;8.05;;;;;;;29.24;nan;62945.88;5010404;28;20176;-61
2023/08/02 06:45:10;;;;;;;12.65;7.97;;;;;;;29.19;nan;62922.28;5004969;28;20193;-63
2023/08/02 06:47:36;;;;;;;12.70;8.10;;;;;;;28.93;nan;62861.44;5010929;28;20278;-63
2023/08/02 06:50:02;;;;;;;14.93;8.63;;;;;;;28.81;nan;62834.47;5010371;28;20199;-60
2023/08/02 06:52:31;;;;;;;14.68;8.98;;;;;;;28.58;nan;62742.31;5011715;28;20656;-60
2023/08/02 06:54:56;;;;;;;14.27;9.55;;;;;;;28.66;nan;62819.91;4999844;28;20222;-63
2023/08/02 06:57:23;;;;;;;13.38;8.73;;;;;;;28.70;nan;62782.38;4992895;28;20620;-62
2023/08/02 06:59:52;;;;;;;14.38;8.73;;;;;;;28.92;nan;62799.75;5009564;28;20187;-63
2023/08/02 07:02:18;;;;;;;13.07;8.57;;;;;;;29.08;nan;62928.09;5011025;28;20171;-63
2023/08/02 07:04:43;;;;;;;13.60;9.10;;;;;;;29.26;nan;62863.94;5010914;28;20175;-64
2023/08/02 07:07:09;;;;;;;13.27;9.00;;;;;;;29.32;nan;62860.88;5011185;28;20536;-62
2023/08/02 07:09:34;;;;;;;14.25;9.20;;;;;;;29.68;nan;63025.47;5011618;28;20195;-60
2023/08/02 07:11:59;;;;;;;12.18;8.10;;;;;;;29.63;nan;63003.91;5011556;28;20618;-63
2023/08/02 07:14:25;;;;;;;12.05;8.20;;;;;;;29.24;nan;62877.44;5011188;28;20168;-60
2023/08/02 07:16:50;;;;;;;13.27;8.77;;;;;;;29.05;nan;62868.78;5011228;28;20175;-61
2023/08/02 07:19:16;;;;;;;11.95;8.40;;;;;;;28.79;nan;62826.94;5010996;28;20179;-60
2023/08/02 07:21:41;;;;;;;11.80;7.97;;;;;;;28.69;nan;62778.59;5010403;28;20238;-61
2023/08/02 07:24:07;;;;;;;12.85;8.27;;;;;;;28.28;nan;62740.06;5011069;28;20218;-62
2023/08/02 07:26:32;;;;;;;10.63;7.60;;;;;;;28.58;nan;62739.13;5011071;28;20259;-63
2023/08/02 07:28:57;;;;;;;11.20;7.63;;;;;;;28.99;nan;62888.81;5010645;28;20196;-62
2023/08/02 07:31:23;;;;;;;14.35;8.32;;;;;;;28.70;nan;62803.44;5010867;28;20172;-60
2023/08/02 07:33:48;;;;;;;12.75;8.18;;;;;;;28.62;nan;62767.97;5010655;28;20650;-59
2023/08/02 07:36:18;;;;;;;11.73;8.25;;;;;;;28.78;nan;62773.16;5010881;28;20175;-60
2023/08/02 07:38:45;;;;;;;11.23;7.53;;;;;;;28.94;nan;62823.09;5014529;28;20537;-60
2023/08/02 07:41:10;;;;;;;12.07;7.65;;;;;;;28.95;nan;62968.41;5014618;28;20167;-62
2023/08/02 07:43:36;;;;;;;10.27;7.47;;;;;;;28.64;nan;62838.63;5014455;28;20167;-60
2023/08/02 07:46:02;;;;;;;11.15;7.70;;;;;;;28.55;nan;62847.31;5014471;28;20199;-62
2023/08/02 07:48:28;;;;;;;12.80;8.90;;;;;;;28.60;nan;62801.91;5013454;28;20176;-61
2023/08/02 07:50:53;;;;;;;12.13;8.05;;;;;;;28.71;nan;62843.50;5014129;28;20289;-59
2023/08/02 07:53:19;;;;;;;11.48;7.63;;;;;;;28.71;nan;62822.44;5014066;28;20167;-59
2023/08/02 07:55:44;;;;;;;11.07;7.60;;;;;;;29.10;nan;62904.06;5014718;28;20180;-62
2023/08/02 07:58:09;;;;;;;9.73;7.28;;;;;;;29.07;nan;62805.84;5014917;28;20163;-61
2023/08/02 08:00:35;;;;;;;11.00;7.55;;;;;;;29.12;nan;62882.66;5014656;28;20211;-63
2023/08/02 08:03:03;;;;;;;13.77;8.00;;;;;;;29.02;nan;62868.56;5014285;28;20218;-63
2023/08/02 08:05:32;;;;;;;12.02;7.25;;;;;;;28.98;nan;62922.44;5014873;28;20245;-61
2023/08/02 08:07:57;;;;;;;11.65;7.40;;;;;;;29.36;nan;62854.38;5014452;28;20596;-61
2023/08/02 08:10:22;;;;;;;10.30;7.28;;;;;;;29.59;nan;62928.19;5014271;28;20203;-63
2023/08/02 08:12:48;;;;;;;11.70;7.63;;;;;;;29.77;nan;62956.75;5014485;28;20639;-60
2023/08/02 08:15:13;;;;;;;13.25;7.63;;;;;;;29.64;nan;62955.00;5014357;28;20187;-61
2023/08/02 08:17:38;;;;;;;12.13;7.25;;;;;;;29.51;nan;62953.22;5014060;28;20591;-60
2023/08/02 08:20:05;;;;;;;9.27;6.82;;;;;;;29.78;nan;63005.34;5014335;28;20171;-62
2023/08/02 08:22:31;;;;;;;11.65;7.43;;;;;;;29.70;nan;62940.81;5014549;28;20175;-62
2023/08/02 08:24:56;;;;;;;11.13;7.40;;;;;;;29.98;nan;63149.06;5014543;28;20167;-64
2023/08/02 08:27:22;;;;;;;9.48;6.57;;;;;;;30.19;nan;63006.53;5014603;28;20215;-66
2023/08/02 08:29:47;;;;;;;10.98;7.30;;;;;;;30.09;nan;63005.59;5014047;28;20574;-63
2023/08/02 08:32:12;;;;;;;11.23;7.35;;;;;;;29.75;nan;63007.16;5013839;28;20196;-59
2023/08/02 08:34:38;;;;;;;11.95;7.75;;;;;;;29.93;nan;62955.56;5014707;28;20168;-60
2023/08/02 08:37:04;;;;;;;12.10;7.97;;;;;;;30.02;nan;62998.09;5014285;28;20183;-60
2023/08/02 08:39:29;;;;;;;11.27;7.20;;;;;;;29.92;nan;63012.41;5013937;28;20182;-63
2023/08/02 08:41:57;;;;;;;11.68;7.50;;;;;;;29.79;nan;62974.88;5013866;28;20267;-62
2023/08/02 08:44:22;;;;;;;10.80;7.38;;;;;;;29.84;nan;62951.03;5013942;28;20218;-61
2023/08/02 08:46:48;;;;;;;10.73;7.32;;;;;;;30.00;nan;62993.19;5013804;28;20172;-61
2023/08/02 08:49:13;;;;;;;11.35;7.20;;;;;;;30.14;nan;63166.94;5013330;28;20210;-60
2023/08/02 08:51:45;;;;;;;11.15;7.30;;;;;;;30.03;nan;62977.59;5014103;28;20175;-63
2023/08/02 08:54:24;;;;;;;9.43;6.70;;;;;;;30.14;nan;63072.56;5013672;28;20167;-61
2023/08/02 08:56:50;;;;;;;10.00;7.05;;;;;;;30.44;nan;63134.94;5013285;28;20194;-62
2023/08/02 08:59:16;;;;;;;11.63;7.22;;;;;;;30.59;nan;63189.19;5013357;28;20175;-61
2023/08/02 09:01:43;;;;;;;10.27;7.07;;;;;;;30.65;nan;63146.53;5013623;28;20655;-58
2023/08/02 09:04:09;;;;;;;9.30;6.65;;;;;;;30.77;nan;63365.09;5013739;28;20650;-60
2023/08/02 09:06:35;;;;;;;10.20;6.70;;;;;;;30.03;nan;62922.22;5013699;28;20182;-64
2023/08/02 09:09:00;;;;;;;10.27;7.25;;;;;;;29.93;nan;62971.94;5013364;28;20171;-63
2023/08/02 09:11:25;;;;;;;9.75;7.10;;;;;;;30.27;nan;63103.34;5013558;28;20194;-61
2023/08/02 09:14:14;;;;;;;11.23;6.93;;;;;;;30.25;nan;63039.78;5013419;28;20163;-60
2023/08/02 09:17:01;;;;;;;11.52;7.30;;;;;;;30.67;nan;63158.81;5013713;28;20214;-62
2023/08/02 09:19:29;;;;;;;10.13;7.10;;;;;;;30.60;nan;63182.44;5013498;28;20176;-62
2023/08/02 09:22:14;;;;;;;9.63;6.97;;;;;;;30.90;nan;63174.16;5013293;28;20172;-60
2023/08/02 09:24:41;;;;;;;9.10;6.95;;;;;;;30.96;nan;63130.91;5013759;28;20582;-62
2023/08/02 09:27:17;;;;;;;10.18;7.18;;;;;;;30.99;nan;63245.25;5013270;28;20223;-61
2023/08/02 09:29:48;;;;;;;10.45;7.13;;;;;;;30.92;nan;63118.38;5013216;28;20252;-60
2023/08/02 09:32:15;;;;;;;8.77;6.63;;;;;;;31.01;nan;63252.88;5012879;28;20717;-63
2023/08/02 09:34:45;;;;;;;10.68;7.25;;;;;;;31.23;nan;63246.53;5012902;28;20171;-60
2023/08/02 09:37:12;;;;;;;10.25;6.72;;;;;;;31.31;nan;63258.41;5013091;28;20179;-63
2023/08/02 09:39:38;;;;;;;9.55;6.57;;;;;;;31.03;nan;63271.59;5013346;28;20175;-62
2023/08/02 09:42:12;;;;;;;9.73;6.30;;;;;;;31.58;nan;63239.31;5012812;28;20635;-62
2023/08/02 09:44:41;;;;;;;9.25;6.80;;;;;;;30.54;nan;63189.28;5011664;28;20191;-62
2023/08/02 09:47:10;;;;;;;9.68;6.70;;;;;;;30.92;nan;63158.56;5012458;28;20179;-62
2023/08/02 09:49:36;;;;;;;9.40;6.97;;;;;;;30.83;nan;63205.72;5013101;28;20218;-61
2023/08/02 09:52:02;;;;;;;8.60;6.25;;;;;;;31.08;nan;63404.16;5012585;28;20495;-61
2023/08/02 09:54:29;;;;;;;9.10;6.65;;;;;;;31.23;nan;63159.34;5012726;28;20187;-61
2023/08/02 09:56:56;;;;;;;9.48;6.85;;;;;;;31.10;nan;63181.94;5012603;28;20592;-64
2023/08/02 09:59:21;;;;;;;9.05;6.43;;;;;;;31.56;nan;63237.03;5012397;28;20267;-64
2023/08/02 10:01:48;;;;;;;10.50;6.78;;;;;;;32.02;nan;63315.34;5011929;28;20256;-60
2023/08/02 10:04:14;;;;;;;8.45;6.30;;;;;;;32.31;nan;63364.69;5012442;28;20184;-63
2023/08/02 10:06:52;;;;;;;8.70;6.03;;;;;;;32.28;nan;63453.84;5012654;28;20266;-64
2023/08/02 10:09:23;;;;;;;8.90;6.28;;;;;;;32.44;nan;63422.03;5012375;28;20310;-60
2023/08/02 10:12:02;;;;;;;9.00;6.30;;;;;;;32.88;nan;63555.91;5012382;28;20525;-62
2023/08/02 10:14:30;;;;;;;9.23;6.32;;;;;;;32.98;nan;63562.72;5011518;28;20191;-62
2023/08/02 10:17:00;;;;;;;10.30;6.97;;;;;;;33.08;nan;63507.47;5009199;28;20187;-63
2023/08/02 10:19:27;;;;;;;10.05;6.25;;;;;;;32.95;nan;63543.38;5009726;28;20184;-63
2023/08/02 10:21:53;;;;;;;8.13;5.88;;;;;;;32.72;nan;63379.66;5012417;28;20188;-64
2023/08/02 10:24:19;;;;;;;9.30;6.15;;;;;;;32.34;nan;63505.19;5012137;28;20184;-61
2023/08/02 10:26:45;;;;;;;8.48;6.10;;;;;;;32.39;nan;63379.19;5011918;28;20221;-65
2023/08/02 10:29:11;;;;;;;9.18;6.05;;;;;;;32.32;nan;63344.66;5012395;28;20228;-62
2023/08/02 10:31:37;;;;;;;9.20;6.38;;;;;;;32.06;nan;63285.56;5012966;28;20175;-60
2023/08/02 10:34:34;;;;;;;8.27;6.18;;;;;;;32.34;nan;63431.66;5012325;28;20612;-60
2023/08/02 10:36:59;;;;;;;8.98;6.00;;;;;;;32.56;nan;63532.69;5011890;28;20573;-59
2023/08/02 10:39:47;;;;;;;8.85;6.22;;;;;;;32.90;nan;63548.19;5011509;28;20179;-64
2023/08/02 10:42:17;;;;;;;8.68;5.90;;;;;;;33.19;nan;63557.31;5011885;28;20753;-62
2023/08/02 10:44:54;;;;;;;8.25;6.10;;;;;;;33.49;nan;63623.25;5006947;28;20187;-60
2023/08/02 10:47:23;;;;;;;8.77;5.95;;;;;;;33.53;nan;63652.31;5011164;28;20495;-61
2023/08/02 10:49:49;;;;;;;10.13;6.40;;;;;;;33.48;nan;63614.16;5011483;28;20206;-62
2023/08/02 10:52:26;;;;;;;8.20;6.15;;;;;;;33.56;nan;63671.13;5012532;28;20199;-62
2023/08/02 10:55:04;;;;;;;7.55;5.93;;;;;;;33.64;nan;63596.09;5009882;28;20304;-61
2023/08/02 10:57:30;;;;;;;8.15;5.75;;;;;;;33.45;nan;63595.34;5003866;28;20191;-62
2023/08/02 10:59:56;;;;;;;7.97;5.68;;;;;;;33.51;nan;63634.09;5011669;28;20175;-63
2023/08/02 11:02:25;;;;;;;8.85;5.95;;;;;;;33.47;nan;63632.13;5011464;28;20176;-59
2023/08/02 11:04:51;;;;;;;8.88;5.72;;;;;;;33.16;nan;63453.72;4998580;28;20183;-60
2023/08/02 11:07:21;;;;;;;8.18;5.68;;;;;;;32.89;nan;63520.53;5011582;28;20275;-61
2023/08/02 11:09:49;;;;;;;8.35;6.00;;;;;;;33.28;nan;63530.63;5011163;28;20205;-63
2023/08/02 11:12:19;;;;;;;8.23;5.40;;;;;;;33.62;nan;63596.44;5012780;28;20258;-62
2023/08/02 11:14:47;;;;;;;8.10;5.53;;;;;;;33.82;nan;63701.25;5013786;28;20616;-64
2023/08/02 11:17:20;;;;;;;8.13;5.20;;;;;;;33.96;nan;63844.84;5015411;28;20183;-59
2023/08/02 11:19:49;;;;;;;6.72;4.90;;;;;;;33.82;nan;63607.81;5015022;28;20179;-62
2023/08/02 11:22:16;;;;;;;6.97;5.10;;;;;;;33.98;nan;63679.41;5015143;28;20168;-64
2023/08/02 11:24:42;;;;;;;8.38;5.68;;;;;;;33.91;nan;63746.19;5013924;28;20171;-62
2023/08/02 11:27:08;;;;;;;8.05;5.22;;;;;;;34.09;nan;63804.19;5013787;28;20258;-63
2023/08/02 11:29:34;;;;;;;8.57;5.22;;;;;;;33.73;nan;63576.78;5015124;28;20297;-62
2023/08/02 11:32:04;;;;;;;7.47;5.65;;;;;;;34.01;nan;63672.84;5014872;28;20274;-59
2023/08/02 11:34:35;;;;;;;8.90;6.05;;;;;;;34.25;nan;63692.09;5009576;28;20252;-62
2023/08/02 11:37:02;;;;;;;6.97;4.93;;;;;;;34.24;nan;63799.22;5011523;28;20185;-63
2023/08/02 11:39:27;;;;;;;7.88;5.25;;;;;;;34.16;nan;63697.59;5015145;28;20242;-62
2023/08/02 11:42:03;;;;;;;6.88;5.20;;;;;;;33.90;nan;63742.34;5015520;28;20179;-60